Terminal Aerodrome Forecast
Issued by NWS

Home | Current Version | Previous Version | Text Only | Print | Product List | Glossary On
Versions: 1 2 3 4 5 6 7 8 9 10 11 12 13 14 15
000
FTUS44 KSJT 240500
TAFBBD
TAF
KBBD 240538Z 2406/2506 VRB06KT P6SM BKN050
     FM240900 VRB04KT 5SM BR SKC
     FM241400 18006KT P6SM SKC
     FM241800 19008KT P6SM SKC=

USA.gov is the U.S. government's official web portal to all federal, state and local government web resources and services.